sensor_id;sensor_type;location;lat;lon;timestamp;P1;durP1;ratioP1;P2;durP2;ratioP2
26486;SDS011;14425;56.136;40.360;2023-06-14T00:00:40;11.23;;;3.85;;
26486;SDS011;14425;56.136;40.360;2023-06-14T00:03:07;7.05;;;4.13;;
26486;SDS011;14425;56.136;40.360;2023-06-14T00:05:35;6.47;;;3.85;;
26486;SDS011;14425;56.136;40.360;2023-06-14T00:10:36;8.32;;;3.85;;
26486;SDS011;14425;56.136;40.360;2023-06-14T00:13:02;10.80;;;4.15;;
26486;SDS011;14425;56.136;40.360;2023-06-14T00:15:29;5.45;;;3.65;;
26486;SDS011;14425;56.136;40.360;2023-06-14T00:17:56;9.18;;;3.90;;
26486;SDS011;14425;56.136;40.360;2023-06-14T00:20:29;11.63;;;4.07;;
26486;SDS011;14425;56.136;40.360;2023-06-14T00:22:59;8.10;;;3.75;;
26486;SDS011;14425;56.136;40.360;2023-06-14T00:25:25;10.10;;;3.92;;
26486;SDS011;14425;56.136;40.360;2023-06-14T00:27:51;5.95;;;4.20;;
26486;SDS011;14425;56.136;40.360;2023-06-14T00:30:17;7.85;;;4.28;;
26486;SDS011;14425;56.136;40.360;2023-06-14T00:32:43;8.40;;;4.05;;
26486;SDS011;14425;56.136;40.360;2023-06-14T00:35:09;6.30;;;4.22;;
26486;SDS011;14425;56.136;40.360;2023-06-14T00:37:35;7.63;;;4.05;;
26486;SDS011;14425;56.136;40.360;2023-06-14T00:40:01;10.45;;;3.92;;
26486;SDS011;14425;56.136;40.360;2023-06-14T00:42:29;6.78;;;4.18;;
26486;SDS011;14425;56.136;40.360;2023-06-14T00:44:55;5.85;;;3.88;;
26486;SDS011;14425;56.136;40.360;2023-06-14T00:47:20;10.45;;;4.03;;
26486;SDS011;14425;56.136;40.360;2023-06-14T00:49:47;8.18;;;3.97;;
26486;SDS011;14425;56.136;40.360;2023-06-14T00:52:15;7.13;;;3.92;;
26486;SDS011;14425;56.136;40.360;2023-06-14T00:54:41;9.05;;;4.40;;
26486;SDS011;14425;56.136;40.360;2023-06-14T00:57:08;8.02;;;3.70;;
26486;SDS011;14425;56.136;40.360;2023-06-14T00:59:43;5.97;;;3.58;;
26486;SDS011;14425;56.136;40.360;2023-06-14T01:02:10;10.13;;;4.30;;
26486;SDS011;14425;56.136;40.360;2023-06-14T01:04:37;7.88;;;4.50;;
26486;SDS011;14425;56.136;40.360;2023-06-14T01:12:31;7.80;;;3.80;;
26486;SDS011;14425;56.136;40.360;2023-06-14T01:15:17;5.47;;;4.15;;
26486;SDS011;14425;56.136;40.360;2023-06-14T01:17:45;10.18;;;4.28;;
26486;SDS011;14425;56.136;40.360;2023-06-14T01:22:50;6.60;;;3.97;;
26486;SDS011;14425;56.136;40.360;2023-06-14T01:25:18;12.23;;;3.95;;
26486;SDS011;14425;56.136;40.360;2023-06-14T01:27:49;8.35;;;4.50;;
26486;SDS011;14425;56.136;40.360;2023-06-14T01:30:16;8.95;;;4.15;;
26486;SDS011;14425;56.136;40.360;2023-06-14T01:32:42;6.35;;;4.00;;
26486;SDS011;14425;56.136;40.360;2023-06-14T01:35:09;8.52;;;3.67;;
26486;SDS011;14425;56.136;40.360;2023-06-14T01:37:35;6.38;;;3.60;;
26486;SDS011;14425;56.136;40.360;2023-06-14T01:40:02;6.93;;;3.75;;
26486;SDS011;14425;56.136;40.360;2023-06-14T01:42:29;7.50;;;3.75;;
26486;SDS011;14425;56.136;40.360;2023-06-14T01:44:55;6.85;;;3.83;;
26486;SDS011;14425;56.136;40.360;2023-06-14T01:47:21;6.93;;;3.97;;
26486;SDS011;14425;56.136;40.360;2023-06-14T01:49:47;6.38;;;3.85;;
26486;SDS011;14425;56.136;40.360;2023-06-14T01:52:13;9.10;;;4.13;;
26486;SDS011;14425;56.136;40.360;2023-06-14T01:54:39;12.27;;;4.32;;
26486;SDS011;14425;56.136;40.360;2023-06-14T01:57:07;6.18;;;3.55;;
26486;SDS011;14425;56.136;40.360;2023-06-14T01:59:33;6.60;;;3.60;;
26486;SDS011;14425;56.136;40.360;2023-06-14T02:02:01;6.85;;;3.20;;
26486;SDS011;14425;56.136;40.360;2023-06-14T02:04:28;5.10;;;3.90;;
26486;SDS011;14425;56.136;40.360;2023-06-14T02:06:54;12.60;;;4.50;;
26486;SDS011;14425;56.136;40.360;2023-06-14T02:09:19;23.35;;;11.80;;
26486;SDS011;14425;56.136;40.360;2023-06-14T02:11:45;14.10;;;9.32;;
26486;SDS011;14425;56.136;40.360;2023-06-14T02:14:10;17.15;;;7.25;;
26486;SDS011;14425;56.136;40.360;2023-06-14T02:16:37;10.93;;;5.90;;
26486;SDS011;14425;56.136;40.360;2023-06-14T02:19:07;12.85;;;7.75;;
26486;SDS011;14425;56.136;40.360;2023-06-14T02:21:32;17.98;;;6.55;;
26486;SDS011;14425;56.136;40.360;2023-06-14T02:23:58;7.47;;;5.32;;
26486;SDS011;14425;56.136;40.360;2023-06-14T02:26:23;13.98;;;5.18;;
26486;SDS011;14425;56.136;40.360;2023-06-14T02:28:49;16.38;;;9.10;;
26486;SDS011;14425;56.136;40.360;2023-06-14T02:31:14;22.60;;;12.90;;
26486;SDS011;14425;56.136;40.360;2023-06-14T02:33:41;13.70;;;7.20;;
26486;SDS011;14425;56.136;40.360;2023-06-14T02:36:07;13.15;;;8.07;;
26486;SDS011;14425;56.136;40.360;2023-06-14T02:38:32;9.02;;;4.38;;
26486;SDS011;14425;56.136;40.360;2023-06-14T02:40:58;10.98;;;4.32;;
26486;SDS011;14425;56.136;40.360;2023-06-14T02:43:25;8.32;;;5.07;;
26486;SDS011;14425;56.136;40.360;2023-06-14T02:45:51;7.75;;;4.00;;
26486;SDS011;14425;56.136;40.360;2023-06-14T02:48:17;8.02;;;3.85;;
26486;SDS011;14425;56.136;40.360;2023-06-14T02:50:51;9.75;;;4.05;;
26486;SDS011;14425;56.136;40.360;2023-06-14T02:53:26;10.93;;;3.90;;
26486;SDS011;14425;56.136;40.360;2023-06-14T02:55:52;11.57;;;3.88;;
26486;SDS011;14425;56.136;40.360;2023-06-14T02:58:18;10.35;;;4.05;;
26486;SDS011;14425;56.136;40.360;2023-06-14T03:00:44;8.73;;;4.00;;
26486;SDS011;14425;56.136;40.360;2023-06-14T03:03:09;10.98;;;4.60;;
26486;SDS011;14425;56.136;40.360;2023-06-14T03:05:41;9.38;;;4.05;;
26486;SDS011;14425;56.136;40.360;2023-06-14T03:08:11;10.10;;;3.45;;
26486;SDS011;14425;56.136;40.360;2023-06-14T03:10:48;5.80;;;4.53;;
26486;SDS011;14425;56.136;40.360;2023-06-14T03:13:14;13.38;;;6.55;;
26486;SDS011;14425;56.136;40.360;2023-06-14T03:15:43;9.98;;;4.03;;
26486;SDS011;14425;56.136;40.360;2023-06-14T03:18:10;9.98;;;4.28;;
26486;SDS011;14425;56.136;40.360;2023-06-14T03:20:37;10.73;;;3.97;;
26486;SDS011;14425;56.136;40.360;2023-06-14T03:23:04;13.85;;;4.10;;
26486;SDS011;14425;56.136;40.360;2023-06-14T03:25:30;7.90;;;3.63;;
26486;SDS011;14425;56.136;40.360;2023-06-14T03:27:56;8.52;;;3.67;;
26486;SDS011;14425;56.136;40.360;2023-06-14T03:30:22;11.38;;;3.97;;
26486;SDS011;14425;56.136;40.360;2023-06-14T03:32:48;6.88;;;3.45;;
26486;SDS011;14425;56.136;40.360;2023-06-14T03:35:14;6.05;;;3.17;;
26486;SDS011;14425;56.136;40.360;2023-06-14T03:37:43;5.97;;;3.10;;
26486;SDS011;14425;56.136;40.360;2023-06-14T03:40:09;5.70;;;3.17;;
26486;SDS011;14425;56.136;40.360;2023-06-14T03:42:36;6.78;;;3.10;;
26486;SDS011;14425;56.136;40.360;2023-06-14T03:45:02;4.57;;;3.22;;
26486;SDS011;14425;56.136;40.360;2023-06-14T03:47:30;6.53;;;2.78;;
26486;SDS011;14425;56.136;40.360;2023-06-14T03:49:56;8.88;;;4.03;;
26486;SDS011;14425;56.136;40.360;2023-06-14T03:52:21;5.10;;;2.80;;
26486;SDS011;14425;56.136;40.360;2023-06-14T03:54:48;3.08;;;2.70;;
26486;SDS011;14425;56.136;40.360;2023-06-14T03:57:14;3.20;;;2.47;;
26486;SDS011;14425;56.136;40.360;2023-06-14T03:59:40;4.82;;;2.75;;
26486;SDS011;14425;56.136;40.360;2023-06-14T04:02:06;8.07;;;4.43;;
26486;SDS011;14425;56.136;40.360;2023-06-14T04:04:34;5.53;;;3.28;;
26486;SDS011;14425;56.136;40.360;2023-06-14T04:07:00;10.48;;;3.47;;
26486;SDS011;14425;56.136;40.360;2023-06-14T04:09:28;5.90;;;3.70;;
26486;SDS011;14425;56.136;40.360;2023-06-14T04:11:54;6.20;;;3.63;;
26486;SDS011;14425;56.136;40.360;2023-06-14T04:14:21;8.73;;;3.50;;
26486;SDS011;14425;56.136;40.360;2023-06-14T04:16:47;8.05;;;3.58;;
26486;SDS011;14425;56.136;40.360;2023-06-14T04:19:13;7.35;;;3.90;;
26486;SDS011;14425;56.136;40.360;2023-06-14T04:21:39;6.78;;;3.40;;
26486;SDS011;14425;56.136;40.360;2023-06-14T04:24:04;6.45;;;3.63;;
26486;SDS011;14425;56.136;40.360;2023-06-14T04:26:30;4.35;;;2.78;;
26486;SDS011;14425;56.136;40.360;2023-06-14T04:28:59;7.03;;;3.08;;
26486;SDS011;14425;56.136;40.360;2023-06-14T04:31:28;5.82;;;3.35;;
26486;SDS011;14425;56.136;40.360;2023-06-14T04:33:55;14.02;;;3.75;;
26486;SDS011;14425;56.136;40.360;2023-06-14T04:36:21;13.13;;;3.28;;
26486;SDS011;14425;56.136;40.360;2023-06-14T04:38:47;9.80;;;4.18;;
26486;SDS011;14425;56.136;40.360;2023-06-14T04:41:14;8.68;;;3.58;;
26486;SDS011;14425;56.136;40.360;2023-06-14T04:43:41;9.93;;;3.53;;
26486;SDS011;14425;56.136;40.360;2023-06-14T04:46:08;7.15;;;3.45;;
26486;SDS011;14425;56.136;40.360;2023-06-14T04:48:39;13.20;;;4.03;;
26486;SDS011;14425;56.136;40.360;2023-06-14T04:51:06;9.30;;;3.22;;
26486;SDS011;14425;56.136;40.360;2023-06-14T04:53:33;3.92;;;2.88;;
26486;SDS011;14425;56.136;40.360;2023-06-14T04:55:59;3.30;;;2.50;;
26486;SDS011;14425;56.136;40.360;2023-06-14T04:58:26;3.25;;;2.42;;
26486;SDS011;14425;56.136;40.360;2023-06-14T05:00:54;5.88;;;2.97;;
26486;SDS011;14425;56.136;40.360;2023-06-14T05:03:24;15.07;;;4.80;;
26486;SDS011;14425;56.136;40.360;2023-06-14T05:05:52;4.90;;;2.63;;
26486;SDS011;14425;56.136;40.360;2023-06-14T05:08:18;10.73;;;4.65;;
26486;SDS011;14425;56.136;40.360;2023-06-14T05:10:45;5.75;;;3.30;;
26486;SDS011;14425;56.136;40.360;2023-06-14T05:13:10;5.55;;;2.90;;
26486;SDS011;14425;56.136;40.360;2023-06-14T05:15:36;7.53;;;3.47;;
26486;SDS011;14425;56.136;40.360;2023-06-14T05:18:02;9.07;;;3.20;;
26486;SDS011;14425;56.136;40.360;2023-06-14T05:20:27;9.38;;;3.38;;
26486;SDS011;14425;56.136;40.360;2023-06-14T05:22:54;15.13;;;3.60;;
26486;SDS011;14425;56.136;40.360;2023-06-14T05:25:20;10.15;;;2.97;;
26486;SDS011;14425;56.136;40.360;2023-06-14T05:27:46;9.05;;;2.95;;
26486;SDS011;14425;56.136;40.360;2023-06-14T05:30:13;8.27;;;3.20;;
26486;SDS011;14425;56.136;40.360;2023-06-14T05:32:40;17.48;;;3.50;;
26486;SDS011;14425;56.136;40.360;2023-06-14T05:35:06;16.75;;;3.45;;
26486;SDS011;14425;56.136;40.360;2023-06-14T05:37:32;12.50;;;3.20;;
26486;SDS011;14425;56.136;40.360;2023-06-14T05:39:57;9.30;;;2.97;;
26486;SDS011;14425;56.136;40.360;2023-06-14T05:42:23;16.08;;;3.08;;
26486;SDS011;14425;56.136;40.360;2023-06-14T05:44:48;13.60;;;3.40;;
26486;SDS011;14425;56.136;40.360;2023-06-14T05:47:14;11.68;;;3.45;;
26486;SDS011;14425;56.136;40.360;2023-06-14T05:49:40;8.82;;;2.38;;
26486;SDS011;14425;56.136;40.360;2023-06-14T05:52:06;8.32;;;2.53;;
26486;SDS011;14425;56.136;40.360;2023-06-14T05:54:32;4.40;;;2.33;;
26486;SDS011;14425;56.136;40.360;2023-06-14T05:56:57;3.75;;;2.10;;
26486;SDS011;14425;56.136;40.360;2023-06-14T05:59:27;7.47;;;2.50;;
26486;SDS011;14425;56.136;40.360;2023-06-14T06:01:53;6.00;;;2.28;;
26486;SDS011;14425;56.136;40.360;2023-06-14T06:04:18;8.15;;;2.22;;
26486;SDS011;14425;56.136;40.360;2023-06-14T06:06:44;4.45;;;2.05;;
26486;SDS011;14425;56.136;40.360;2023-06-14T06:09:10;11.23;;;2.17;;
26486;SDS011;14425;56.136;40.360;2023-06-14T06:11:35;6.88;;;2.15;;
26486;SDS011;14425;56.136;40.360;2023-06-14T06:14:01;2.78;;;2.00;;
26486;SDS011;14425;56.136;40.360;2023-06-14T06:16:27;8.55;;;1.80;;
26486;SDS011;14425;56.136;40.360;2023-06-14T06:18:52;7.88;;;2.67;;
26486;SDS011;14425;56.136;40.360;2023-06-14T06:21:17;10.25;;;3.35;;
26486;SDS011;14425;56.136;40.360;2023-06-14T06:23:43;6.00;;;2.40;;
26486;SDS011;14425;56.136;40.360;2023-06-14T06:26:08;6.50;;;2.00;;
26486;SDS011;14425;56.136;40.360;2023-06-14T06:28:34;5.30;;;2.25;;
26486;SDS011;14425;56.136;40.360;2023-06-14T06:31:00;6.00;;;2.13;;
26486;SDS011;14425;56.136;40.360;2023-06-14T06:33:26;32.40;;;3.80;;
26486;SDS011;14425;56.136;40.360;2023-06-14T06:35:51;3.80;;;2.13;;
26486;SDS011;14425;56.136;40.360;2023-06-14T06:38:17;3.88;;;2.08;;
26486;SDS011;14425;56.136;40.360;2023-06-14T06:40:44;4.13;;;1.60;;
26486;SDS011;14425;56.136;40.360;2023-06-14T06:43:09;3.90;;;1.83;;
26486;SDS011;14425;56.136;40.360;2023-06-14T06:45:38;5.05;;;2.00;;
26486;SDS011;14425;56.136;40.360;2023-06-14T06:48:04;6.32;;;2.92;;
26486;SDS011;14425;56.136;40.360;2023-06-14T06:50:30;3.15;;;2.22;;
26486;SDS011;14425;56.136;40.360;2023-06-14T06:52:56;3.70;;;2.03;;
26486;SDS011;14425;56.136;40.360;2023-06-14T06:55:21;4.15;;;1.98;;
26486;SDS011;14425;56.136;40.360;2023-06-14T06:57:47;3.05;;;2.45;;
26486;SDS011;14425;56.136;40.360;2023-06-14T07:00:12;3.08;;;1.98;;
26486;SDS011;14425;56.136;40.360;2023-06-14T07:02:38;3.35;;;2.00;;
26486;SDS011;14425;56.136;40.360;2023-06-14T07:05:03;3.42;;;1.70;;
26486;SDS011;14425;56.136;40.360;2023-06-14T07:07:29;8.40;;;1.90;;
26486;SDS011;14425;56.136;40.360;2023-06-14T07:09:55;6.43;;;2.10;;
26486;SDS011;14425;56.136;40.360;2023-06-14T07:12:22;4.43;;;2.63;;
26486;SDS011;14425;56.136;40.360;2023-06-14T07:14:48;7.88;;;2.40;;
26486;SDS011;14425;56.136;40.360;2023-06-14T07:17:14;4.45;;;1.80;;
26486;SDS011;14425;56.136;40.360;2023-06-14T07:19:39;2.60;;;2.17;;
26486;SDS011;14425;56.136;40.360;2023-06-14T07:22:05;2.17;;;1.83;;
26486;SDS011;14425;56.136;40.360;2023-06-14T07:24:30;7.22;;;2.20;;
26486;SDS011;14425;56.136;40.360;2023-06-14T07:26:56;5.55;;;2.00;;
26486;SDS011;14425;56.136;40.360;2023-06-14T07:29:21;7.15;;;2.00;;
26486;SDS011;14425;56.136;40.360;2023-06-14T07:31:47;7.43;;;2.65;;
26486;SDS011;14425;56.136;40.360;2023-06-14T07:34:12;4.38;;;2.10;;
26486;SDS011;14425;56.136;40.360;2023-06-14T07:36:38;2.80;;;2.22;;
26486;SDS011;14425;56.136;40.360;2023-06-14T07:39:04;8.30;;;3.38;;
26486;SDS011;14425;56.136;40.360;2023-06-14T07:41:31;10.07;;;2.45;;
26486;SDS011;14425;56.136;40.360;2023-06-14T07:43:57;2.30;;;2.10;;
26486;SDS011;14425;56.136;40.360;2023-06-14T07:46:22;6.57;;;2.40;;
26486;SDS011;14425;56.136;40.360;2023-06-14T07:48:48;4.47;;;2.10;;
26486;SDS011;14425;56.136;40.360;2023-06-14T07:51:13;4.85;;;2.35;;
26486;SDS011;14425;56.136;40.360;2023-06-14T07:53:39;4.13;;;2.33;;
26486;SDS011;14425;56.136;40.360;2023-06-14T07:56:06;2.50;;;2.13;;
26486;SDS011;14425;56.136;40.360;2023-06-14T07:58:31;8.00;;;2.60;;
26486;SDS011;14425;56.136;40.360;2023-06-14T08:00:57;4.22;;;2.53;;
26486;SDS011;14425;56.136;40.360;2023-06-14T08:03:22;5.47;;;1.90;;
26486;SDS011;14425;56.136;40.360;2023-06-14T08:05:48;2.38;;;1.95;;
26486;SDS011;14425;56.136;40.360;2023-06-14T08:08:13;3.30;;;2.35;;
26486;SDS011;14425;56.136;40.360;2023-06-14T08:10:39;10.68;;;2.70;;
26486;SDS011;14425;56.136;40.360;2023-06-14T08:13:04;2.65;;;1.92;;
26486;SDS011;14425;56.136;40.360;2023-06-14T08:15:30;4.43;;;2.00;;
26486;SDS011;14425;56.136;40.360;2023-06-14T08:17:55;2.63;;;1.92;;
26486;SDS011;14425;56.136;40.360;2023-06-14T08:20:21;8.40;;;2.83;;
26486;SDS011;14425;56.136;40.360;2023-06-14T08:22:47;2.65;;;2.42;;
26486;SDS011;14425;56.136;40.360;2023-06-14T08:25:13;3.28;;;2.05;;
26486;SDS011;14425;56.136;40.360;2023-06-14T08:27:38;2.40;;;2.10;;
26486;SDS011;14425;56.136;40.360;2023-06-14T08:30:05;4.47;;;2.22;;
26486;SDS011;14425;56.136;40.360;2023-06-14T08:32:34;4.28;;;2.40;;
26486;SDS011;14425;56.136;40.360;2023-06-14T08:35:00;5.68;;;2.83;;
26486;SDS011;14425;56.136;40.360;2023-06-14T08:37:26;3.65;;;2.00;;
26486;SDS011;14425;56.136;40.360;2023-06-14T08:39:52;3.88;;;1.92;;
26486;SDS011;14425;56.136;40.360;2023-06-14T08:42:17;4.05;;;1.75;;
26486;SDS011;14425;56.136;40.360;2023-06-14T08:44:46;3.70;;;1.90;;
26486;SDS011;14425;56.136;40.360;2023-06-14T08:47:12;8.25;;;2.63;;
26486;SDS011;14425;56.136;40.360;2023-06-14T08:49:39;16.40;;;3.83;;
26486;SDS011;14425;56.136;40.360;2023-06-14T08:52:10;7.78;;;2.00;;
26486;SDS011;14425;56.136;40.360;2023-06-14T08:54:38;15.25;;;3.92;;
26486;SDS011;14425;56.136;40.360;2023-06-14T08:57:12;3.58;;;2.08;;
26486;SDS011;14425;56.136;40.360;2023-06-14T09:02:10;25.85;;;3.70;;
26486;SDS011;14425;56.136;40.360;2023-06-14T09:04:38;3.20;;;1.98;;
26486;SDS011;14425;56.136;40.360;2023-06-14T09:07:05;46.08;;;4.53;;
26486;SDS011;14425;56.136;40.360;2023-06-14T09:09:31;2.88;;;2.17;;
26486;SDS011;14425;56.136;40.360;2023-06-14T09:11:57;3.17;;;1.75;;
26486;SDS011;14425;56.136;40.360;2023-06-14T09:14:26;8.35;;;2.45;;
26486;SDS011;14425;56.136;40.360;2023-06-14T09:16:54;4.40;;;2.17;;
26486;SDS011;14425;56.136;40.360;2023-06-14T09:19:23;9.63;;;2.08;;
26486;SDS011;14425;56.136;40.360;2023-06-14T09:21:49;2.92;;;2.15;;
26486;SDS011;14425;56.136;40.360;2023-06-14T09:24:15;6.22;;;2.05;;
26486;SDS011;14425;56.136;40.360;2023-06-14T09:26:41;5.90;;;1.95;;
26486;SDS011;14425;56.136;40.360;2023-06-14T09:29:06;5.35;;;2.17;;
26486;SDS011;14425;56.136;40.360;2023-06-14T09:31:32;2.78;;;2.00;;
26486;SDS011;14425;56.136;40.360;2023-06-14T09:33:58;12.32;;;3.50;;
26486;SDS011;14425;56.136;40.360;2023-06-14T09:36:27;4.05;;;2.10;;
26486;SDS011;14425;56.136;40.360;2023-06-14T09:38:57;3.72;;;2.03;;
26486;SDS011;14425;56.136;40.360;2023-06-14T09:41:35;9.07;;;2.40;;
26486;SDS011;14425;56.136;40.360;2023-06-14T09:44:03;5.57;;;2.40;;
26486;SDS011;14425;56.136;40.360;2023-06-14T09:46:30;3.83;;;1.80;;
26486;SDS011;14425;56.136;40.360;2023-06-14T09:48:57;3.53;;;1.88;;
26486;SDS011;14425;56.136;40.360;2023-06-14T09:51:23;4.72;;;1.88;;
26486;SDS011;14425;56.136;40.360;2023-06-14T09:53:49;5.97;;;2.63;;
26486;SDS011;14425;56.136;40.360;2023-06-14T09:56:17;3.13;;;1.60;;
26486;SDS011;14425;56.136;40.360;2023-06-14T09:58:51;2.45;;;2.10;;
26486;SDS011;14425;56.136;40.360;2023-06-14T10:01:20;6.00;;;1.80;;
26486;SDS011;14425;56.136;40.360;2023-06-14T10:03:48;4.28;;;2.25;;
26486;SDS011;14425;56.136;40.360;2023-06-14T10:06:29;11.95;;;2.55;;
26486;SDS011;14425;56.136;40.360;2023-06-14T10:08:59;2.95;;;1.88;;
26486;SDS011;14425;56.136;40.360;2023-06-14T10:11:26;3.95;;;2.03;;
26486;SDS011;14425;56.136;40.360;2023-06-14T10:13:52;3.45;;;2.17;;
26486;SDS011;14425;56.136;40.360;2023-06-14T10:19:40;2.95;;;1.80;;
26486;SDS011;14425;56.136;40.360;2023-06-14T10:24:18;4.13;;;2.17;;
26486;SDS011;14425;56.136;40.360;2023-06-14T10:26:53;9.90;;;3.10;;
26486;SDS011;14425;56.136;40.360;2023-06-14T10:31:46;5.13;;;2.00;;
26486;SDS011;14425;56.136;40.360;2023-06-14T10:34:13;4.72;;;2.30;;
26486;SDS011;14425;56.136;40.360;2023-06-14T10:37:06;7.28;;;2.65;;
26486;SDS011;14425;56.136;40.360;2023-06-14T10:39:38;15.98;;;2.63;;
26486;SDS011;14425;56.136;40.360;2023-06-14T10:46:58;4.13;;;3.20;;
26486;SDS011;14425;56.136;40.360;2023-06-14T10:49:41;4.07;;;2.47;;
26486;SDS011;14425;56.136;40.360;2023-06-14T10:52:11;3.70;;;1.98;;
26486;SDS011;14425;56.136;40.360;2023-06-14T10:57:38;3.50;;;2.30;;
26486;SDS011;14425;56.136;40.360;2023-06-14T11:00:05;19.80;;;3.97;;
26486;SDS011;14425;56.136;40.360;2023-06-14T11:05:41;11.07;;;2.40;;
26486;SDS011;14425;56.136;40.360;2023-06-14T11:11:17;12.20;;;2.30;;
26486;SDS011;14425;56.136;40.360;2023-06-14T11:13:47;8.35;;;2.53;;
26486;SDS011;14425;56.136;40.360;2023-06-14T11:16:13;3.40;;;2.35;;
26486;SDS011;14425;56.136;40.360;2023-06-14T11:18:41;2.08;;;1.80;;
26486;SDS011;14425;56.136;40.360;2023-06-14T11:21:07;4.15;;;2.30;;
26486;SDS011;14425;56.136;40.360;2023-06-14T11:23:36;4.88;;;2.17;;
26486;SDS011;14425;56.136;40.360;2023-06-14T11:26:02;10.82;;;2.88;;
26486;SDS011;14425;56.136;40.360;2023-06-14T11:28:38;22.20;;;3.58;;
26486;SDS011;14425;56.136;40.360;2023-06-14T11:31:05;4.65;;;2.30;;
26486;SDS011;14425;56.136;40.360;2023-06-14T11:33:31;9.27;;;3.33;;
26486;SDS011;14425;56.136;40.360;2023-06-14T11:35:57;27.15;;;3.42;;
26486;SDS011;14425;56.136;40.360;2023-06-14T11:38:23;2.75;;;2.17;;
26486;SDS011;14425;56.136;40.360;2023-06-14T11:40:48;5.32;;;2.13;;
26486;SDS011;14425;56.136;40.360;2023-06-14T11:43:14;5.15;;;2.33;;
26486;SDS011;14425;56.136;40.360;2023-06-14T11:45:40;25.55;;;3.13;;
26486;SDS011;14425;56.136;40.360;2023-06-14T11:48:06;15.48;;;2.72;;
26486;SDS011;14425;56.136;40.360;2023-06-14T11:50:31;5.82;;;2.10;;
26486;SDS011;14425;56.136;40.360;2023-06-14T11:52:59;13.27;;;2.60;;
26486;SDS011;14425;56.136;40.360;2023-06-14T11:55:39;8.70;;;2.40;;
26486;SDS011;14425;56.136;40.360;2023-06-14T11:58:05;4.78;;;2.22;;
26486;SDS011;14425;56.136;40.360;2023-06-14T12:00:31;6.93;;;2.03;;
26486;SDS011;14425;56.136;40.360;2023-06-14T12:02:57;3.17;;;1.95;;
26486;SDS011;14425;56.136;40.360;2023-06-14T12:05:24;7.63;;;2.15;;
26486;SDS011;14425;56.136;40.360;2023-06-14T12:08:02;12.52;;;2.50;;
26486;SDS011;14425;56.136;40.360;2023-06-14T12:10:28;4.20;;;2.08;;
26486;SDS011;14425;56.136;40.360;2023-06-14T12:13:00;71.40;;;7.78;;
26486;SDS011;14425;56.136;40.360;2023-06-14T12:15:29;10.40;;;2.85;;
26486;SDS011;14425;56.136;40.360;2023-06-14T12:17:55;5.03;;;1.75;;
26486;SDS011;14425;56.136;40.360;2023-06-14T12:20:20;5.80;;;1.90;;
26486;SDS011;14425;56.136;40.360;2023-06-14T12:22:53;3.97;;;1.75;;
26486;SDS011;14425;56.136;40.360;2023-06-14T12:25:27;4.70;;;2.58;;
26486;SDS011;14425;56.136;40.360;2023-06-14T12:27:56;4.65;;;1.95;;
26486;SDS011;14425;56.136;40.360;2023-06-14T12:30:22;5.95;;;2.38;;
26486;SDS011;14425;56.136;40.360;2023-06-14T12:32:51;4.35;;;2.30;;
26486;SDS011;14425;56.136;40.360;2023-06-14T12:35:17;3.25;;;2.10;;
26486;SDS011;14425;56.136;40.360;2023-06-14T12:37:44;50.40;;;5.45;;
26486;SDS011;14425;56.136;40.360;2023-06-14T12:40:11;7.10;;;2.33;;
26486;SDS011;14425;56.136;40.360;2023-06-14T12:42:37;4.00;;;2.83;;
26486;SDS011;14425;56.136;40.360;2023-06-14T12:45:02;3.13;;;2.78;;
26486;SDS011;14425;56.136;40.360;2023-06-14T12:47:29;4.72;;;2.45;;
26486;SDS011;14425;56.136;40.360;2023-06-14T12:49:55;11.98;;;2.15;;
26486;SDS011;14425;56.136;40.360;2023-06-14T12:52:21;32.80;;;3.60;;
26486;SDS011;14425;56.136;40.360;2023-06-14T12:54:46;8.30;;;2.20;;
26486;SDS011;14425;56.136;40.360;2023-06-14T12:57:12;12.95;;;2.95;;
26486;SDS011;14425;56.136;40.360;2023-06-14T12:59:37;8.40;;;3.05;;
26486;SDS011;14425;56.136;40.360;2023-06-14T13:02:36;5.70;;;2.50;;
26486;SDS011;14425;56.136;40.360;2023-06-14T13:04:55;4.97;;;2.10;;
26486;SDS011;14425;56.136;40.360;2023-06-14T13:07:21;9.82;;;2.10;;
26486;SDS011;14425;56.136;40.360;2023-06-14T13:09:47;3.95;;;2.20;;
26486;SDS011;14425;56.136;40.360;2023-06-14T13:12:12;3.85;;;2.17;;
26486;SDS011;14425;56.136;40.360;2023-06-14T13:14:38;6.30;;;2.20;;
26486;SDS011;14425;56.136;40.360;2023-06-14T13:17:05;5.68;;;2.92;;
26486;SDS011;14425;56.136;40.360;2023-06-14T13:19:31;4.40;;;2.40;;
26486;SDS011;14425;56.136;40.360;2023-06-14T13:21:57;12.10;;;2.60;;
26486;SDS011;14425;56.136;40.360;2023-06-14T13:24:22;5.60;;;1.88;;
26486;SDS011;14425;56.136;40.360;2023-06-14T13:26:48;9.27;;;2.10;;
26486;SDS011;14425;56.136;40.360;2023-06-14T13:29:13;6.60;;;1.88;;
26486;SDS011;14425;56.136;40.360;2023-06-14T13:31:39;7.35;;;2.70;;
26486;SDS011;14425;56.136;40.360;2023-06-14T13:34:04;13.98;;;3.08;;
26486;SDS011;14425;56.136;40.360;2023-06-14T13:36:31;6.68;;;2.00;;
26486;SDS011;14425;56.136;40.360;2023-06-14T13:38:56;4.22;;;2.00;;
26486;SDS011;14425;56.136;40.360;2023-06-14T13:41:25;5.13;;;2.20;;
26486;SDS011;14425;56.136;40.360;2023-06-14T13:43:57;6.00;;;2.65;;
26486;SDS011;14425;56.136;40.360;2023-06-14T13:46:23;2.78;;;2.05;;
26486;SDS011;14425;56.136;40.360;2023-06-14T13:48:49;3.60;;;2.50;;
26486;SDS011;14425;56.136;40.360;2023-06-14T13:51:15;7.45;;;2.15;;
26486;SDS011;14425;56.136;40.360;2023-06-14T13:53:45;9.32;;;2.30;;
26486;SDS011;14425;56.136;40.360;2023-06-14T13:56:11;1.88;;;1.70;;
26486;SDS011;14425;56.136;40.360;2023-06-14T13:58:37;4.35;;;2.38;;
26486;SDS011;14425;56.136;40.360;2023-06-14T14:01:03;5.13;;;1.90;;
26486;SDS011;14425;56.136;40.360;2023-06-14T14:03:28;3.53;;;2.38;;
26486;SDS011;14425;56.136;40.360;2023-06-14T14:05:57;3.85;;;1.83;;
26486;SDS011;14425;56.136;40.360;2023-06-14T14:08:22;5.55;;;2.33;;
26486;SDS011;14425;56.136;40.360;2023-06-14T14:10:48;3.28;;;2.38;;
26486;SDS011;14425;56.136;40.360;2023-06-14T14:13:13;5.50;;;2.15;;
26486;SDS011;14425;56.136;40.360;2023-06-14T14:15:39;4.95;;;2.35;;
26486;SDS011;14425;56.136;40.360;2023-06-14T14:18:05;2.35;;;1.98;;
26486;SDS011;14425;56.136;40.360;2023-06-14T14:20:30;13.68;;;3.70;;
26486;SDS011;14425;56.136;40.360;2023-06-14T14:22:56;8.60;;;3.08;;
26486;SDS011;14425;56.136;40.360;2023-06-14T14:25:22;5.95;;;2.55;;
26486;SDS011;14425;56.136;40.360;2023-06-14T14:27:47;5.68;;;3.22;;
26486;SDS011;14425;56.136;40.360;2023-06-14T14:30:13;4.53;;;3.10;;
26486;SDS011;14425;56.136;40.360;2023-06-14T14:32:42;6.53;;;2.50;;
26486;SDS011;14425;56.136;40.360;2023-06-14T14:35:09;4.45;;;3.10;;
26486;SDS011;14425;56.136;40.360;2023-06-14T14:37:36;6.60;;;2.63;;
26486;SDS011;14425;56.136;40.360;2023-06-14T14:40:01;6.35;;;2.53;;
26486;SDS011;14425;56.136;40.360;2023-06-14T14:42:30;5.50;;;2.47;;
26486;SDS011;14425;56.136;40.360;2023-06-14T14:44:55;4.13;;;1.95;;
26486;SDS011;14425;56.136;40.360;2023-06-14T14:47:21;2.90;;;2.30;;
26486;SDS011;14425;56.136;40.360;2023-06-14T14:49:46;4.55;;;2.55;;
26486;SDS011;14425;56.136;40.360;2023-06-14T14:52:12;4.75;;;2.20;;
26486;SDS011;14425;56.136;40.360;2023-06-14T14:54:39;4.45;;;2.00;;
26486;SDS011;14425;56.136;40.360;2023-06-14T14:57:04;4.75;;;2.08;;
26486;SDS011;14425;56.136;40.360;2023-06-14T14:59:32;3.55;;;2.30;;
26486;SDS011;14425;56.136;40.360;2023-06-14T15:01:57;4.03;;;1.85;;
26486;SDS011;14425;56.136;40.360;2023-06-14T15:04:23;2.60;;;2.05;;